NCAR-RAP Real-Time Weather Data

Output produced by METARs form (19 June 2019  11:42 UTC)
found at http://weather.rap.ucar.edu/surface/
 
KTUS 191053Z 15007KT 10SM CLR 20/M04 A3000 RMK AO2 SLP112 T02001044
KTUS 190953Z 13004KT 10SM CLR 22/M04 A3000 RMK AO2 SLP109 T02221044
KTUS 190853Z 14006KT 10SM CLR 23/M04 A3001 RMK AO2 SLP110 T02331044 50001
KTUS 190753Z 11005KT 10SM CLR 24/M05 A3002 RMK AO2 SLP114 T02441050
KTUS 190653Z 00000KT 10SM CLR 26/M05 A3002 RMK AO2 SLP115 T02561050 403720194
KTUS 190553Z 28003KT 10SM CLR 28/M05 A3001 RMK AO2 SLP106 T02781050 10367 20272 51024
KTUS 190453Z 29006KT 10SM CLR 29/M05 A2999 RMK AO2 SLP101 T02891050
KTUS 190353Z 26007KT 10SM CLR 30/M07 A2996 RMK AO2 SLP092 T03001072
KTUS 190253Z 24006KT 10SM CLR 32/M08 A2993 RMK AO2 SLP082 T03221083 53008
KTUS 190153Z 23011KT 10SM CLR 34/M08 A2991 RMK AO2 SLP078 T03441078
KTUS 190053Z 25010KT 10SM CLR 36/M06 A2990 RMK AO2 SLP074 T03611061
KTUS 182353Z 22007G18KT 10SM CLR 36/M07 A2991 RMK AO2 SLP076 T03611072 10372 20339 56013
KTUS 182253Z 19006G18KT 10SM CLR 37/M09 A2992 RMK AO2 SLP079 T03671089
KTUS 182153Z 23011G19KT 10SM CLR 37/M09 A2993 RMK AO2 SLP084 T03671094
KTUS 182053Z VRB06G15KT 10SM CLR 36/M08 A2995 RMK AO2 SLP087 T03611083 58016
KTUS 181953Z VRB03G14KT 10SM CLR 35/M08 A2997 RMK AO2 SLP095 T03501078
KTUS 181853Z VRB06KT 10SM CLR 34/M06 A2999 RMK AO2 SLP100 T03441061
KTUS 181753Z 18009KT 10SM CLR 34/M08 A3000 RMK AO2 SLP103 T03391078 10339 20206 51001
KTUS 181653Z 24007G18KT 10SM CLR 33/M02 A2999 RMK AO2 SLP102 T03281022